sensor_id;sensor_type;location;lat;lon;timestamp;temperature;humidity
51815;DHT22;37874;53.158;6.766;2024-03-08T00:01:32;17.50;72.20
51815;DHT22;37874;53.158;6.766;2024-03-08T00:03:58;17.50;72.30
51815;DHT22;37874;53.158;6.766;2024-03-08T00:06:28;17.80;72.50
51815;DHT22;37874;53.158;6.766;2024-03-08T00:09:02;17.80;72.50
51815;DHT22;37874;53.158;6.766;2024-03-08T00:11:29;17.50;72.40
51815;DHT22;37874;53.158;6.766;2024-03-08T00:13:56;17.40;72.40
51815;DHT22;37874;53.158;6.766;2024-03-08T00:16:27;17.40;73.00
51815;DHT22;37874;53.158;6.766;2024-03-08T00:18:56;17.50;72.50
51815;DHT22;37874;53.158;6.766;2024-03-08T00:21:21;17.40;73.10
51815;DHT22;37874;53.158;6.766;2024-03-08T00:23:47;17.30;72.60
51815;DHT22;37874;53.158;6.766;2024-03-08T00:26:18;17.30;72.60
51815;DHT22;37874;53.158;6.766;2024-03-08T00:28:45;17.30;72.70
51815;DHT22;37874;53.158;6.766;2024-03-08T00:31:18;17.40;72.80
51815;DHT22;37874;53.158;6.766;2024-03-08T00:33:45;17.20;72.80
51815;DHT22;37874;53.158;6.766;2024-03-08T00:36:11;17.30;72.90
51815;DHT22;37874;53.158;6.766;2024-03-08T00:38:37;17.20;72.80
51815;DHT22;37874;53.158;6.766;2024-03-08T00:41:07;17.10;72.80
51815;DHT22;37874;53.158;6.766;2024-03-08T00:43:33;17.10;72.90
51815;DHT22;37874;53.158;6.766;2024-03-08T00:46:04;17.10;73.00
51815;DHT22;37874;53.158;6.766;2024-03-08T00:48:29;17.10;73.00
51815;DHT22;37874;53.158;6.766;2024-03-08T00:50:57;17.00;73.10
51815;DHT22;37874;53.158;6.766;2024-03-08T00:53:26;17.00;73.10
51815;DHT22;37874;53.158;6.766;2024-03-08T00:56:15;17.00;73.20
51815;DHT22;37874;53.158;6.766;2024-03-08T00:58:49;16.90;73.20
51815;DHT22;37874;53.158;6.766;2024-03-08T01:01:19;16.90;73.30
51815;DHT22;37874;53.158;6.766;2024-03-08T01:03:45;16.90;73.40
51815;DHT22;37874;53.158;6.766;2024-03-08T01:06:12;16.80;73.30
51815;DHT22;37874;53.158;6.766;2024-03-08T01:08:42;16.80;73.40
51815;DHT22;37874;53.158;6.766;2024-03-08T01:11:08;16.80;73.40
51815;DHT22;37874;53.158;6.766;2024-03-08T01:13:37;16.80;73.50
51815;DHT22;37874;53.158;6.766;2024-03-08T01:16:03;16.80;73.60
51815;DHT22;37874;53.158;6.766;2024-03-08T01:18:29;16.80;73.70
51815;DHT22;37874;53.158;6.766;2024-03-08T01:20:59;16.70;73.70
51815;DHT22;37874;53.158;6.766;2024-03-08T01:23:27;16.90;73.80
51815;DHT22;37874;53.158;6.766;2024-03-08T01:25:54;16.70;73.70
51815;DHT22;37874;53.158;6.766;2024-03-08T01:28:23;16.70;73.80
51815;DHT22;37874;53.158;6.766;2024-03-08T01:30:52;16.70;73.80
51815;DHT22;37874;53.158;6.766;2024-03-08T01:33:34;16.60;73.80
51815;DHT22;37874;53.158;6.766;2024-03-08T01:36:03;16.60;73.80
51815;DHT22;37874;53.158;6.766;2024-03-08T01:38:29;16.60;73.90
51815;DHT22;37874;53.158;6.766;2024-03-08T01:41:10;16.60;73.90
51815;DHT22;37874;53.158;6.766;2024-03-08T01:43:39;16.60;74.00
51815;DHT22;37874;53.158;6.766;2024-03-08T01:46:07;16.60;74.00
51815;DHT22;37874;53.158;6.766;2024-03-08T01:48:47;16.50;74.00
51815;DHT22;37874;53.158;6.766;2024-03-08T01:51:20;16.50;74.00
51815;DHT22;37874;53.158;6.766;2024-03-08T01:53:46;16.50;74.10
51815;DHT22;37874;53.158;6.766;2024-03-08T01:56:13;16.50;74.10
51815;DHT22;37874;53.158;6.766;2024-03-08T01:58:41;16.50;74.10
51815;DHT22;37874;53.158;6.766;2024-03-08T02:01:13;16.50;74.10
51815;DHT22;37874;53.158;6.766;2024-03-08T02:03:44;16.60;74.20
51815;DHT22;37874;53.158;6.766;2024-03-08T02:06:28;16.50;74.20
51815;DHT22;37874;53.158;6.766;2024-03-08T02:08:55;16.80;74.30
51815;DHT22;37874;53.158;6.766;2024-03-08T02:11:21;16.50;74.10
51815;DHT22;37874;53.158;6.766;2024-03-08T02:13:48;16.50;74.00
51815;DHT22;37874;53.158;6.766;2024-03-08T02:16:21;16.50;74.00
51815;DHT22;37874;53.158;6.766;2024-03-08T02:18:51;16.50;73.90
51815;DHT22;37874;53.158;6.766;2024-03-08T02:21:17;16.50;73.90
51815;DHT22;37874;53.158;6.766;2024-03-08T02:23:46;16.50;73.80
51815;DHT22;37874;53.158;6.766;2024-03-08T02:26:16;16.50;73.80
51815;DHT22;37874;53.158;6.766;2024-03-08T02:28:45;16.60;73.80
51815;DHT22;37874;53.158;6.766;2024-03-08T02:31:15;16.50;73.70
51815;DHT22;37874;53.158;6.766;2024-03-08T02:33:43;16.60;73.70
51815;DHT22;37874;53.158;6.766;2024-03-08T02:36:10;16.60;73.60
51815;DHT22;37874;53.158;6.766;2024-03-08T02:38:53;16.60;73.60
51815;DHT22;37874;53.158;6.766;2024-03-08T02:41:21;16.60;73.60
51815;DHT22;37874;53.158;6.766;2024-03-08T02:43:51;16.60;73.50
51815;DHT22;37874;53.158;6.766;2024-03-08T02:46:17;16.60;73.50
51815;DHT22;37874;53.158;6.766;2024-03-08T02:48:44;16.60;73.40
51815;DHT22;37874;53.158;6.766;2024-03-08T02:51:10;16.60;73.40
51815;DHT22;37874;53.158;6.766;2024-03-08T02:53:36;16.60;73.40
51815;DHT22;37874;53.158;6.766;2024-03-08T02:56:03;16.60;73.30
51815;DHT22;37874;53.158;6.766;2024-03-08T02:58:33;16.60;73.30
51815;DHT22;37874;53.158;6.766;2024-03-08T03:00:58;16.70;73.30
51815;DHT22;37874;53.158;6.766;2024-03-08T03:03:25;16.60;73.30
51815;DHT22;37874;53.158;6.766;2024-03-08T03:05:53;16.70;73.20
51815;DHT22;37874;53.158;6.766;2024-03-08T03:08:22;16.70;73.30
51815;DHT22;37874;53.158;6.766;2024-03-08T03:10:48;16.70;73.20
51815;DHT22;37874;53.158;6.766;2024-03-08T03:13:15;16.60;73.10
51815;DHT22;37874;53.158;6.766;2024-03-08T03:15:42;16.70;73.10
51815;DHT22;37874;53.158;6.766;2024-03-08T03:18:07;16.70;73.10
51815;DHT22;37874;53.158;6.766;2024-03-08T03:20:35;16.60;73.10
51815;DHT22;37874;53.158;6.766;2024-03-08T03:23:07;16.60;73.10
51815;DHT22;37874;53.158;6.766;2024-03-08T03:25:35;16.60;73.00
51815;DHT22;37874;53.158;6.766;2024-03-08T03:28:04;16.80;73.10
51815;DHT22;37874;53.158;6.766;2024-03-08T03:30:31;16.70;73.00
51815;DHT22;37874;53.158;6.766;2024-03-08T03:33:01;16.70;72.90
51815;DHT22;37874;53.158;6.766;2024-03-08T03:35:28;16.70;72.90
51815;DHT22;37874;53.158;6.766;2024-03-08T03:38:10;16.70;72.90
51815;DHT22;37874;53.158;6.766;2024-03-08T03:40:39;16.70;72.80
51815;DHT22;37874;53.158;6.766;2024-03-08T03:43:06;16.70;72.80
51815;DHT22;37874;53.158;6.766;2024-03-08T03:45:33;16.70;72.70
51815;DHT22;37874;53.158;6.766;2024-03-08T03:48:02;16.70;72.80
51815;DHT22;37874;53.158;6.766;2024-03-08T03:50:28;16.70;72.70
51815;DHT22;37874;53.158;6.766;2024-03-08T03:52:58;16.80;72.80
51815;DHT22;37874;53.158;6.766;2024-03-08T03:55:29;16.70;72.70
51815;DHT22;37874;53.158;6.766;2024-03-08T03:57:54;16.80;72.60
51815;DHT22;37874;53.158;6.766;2024-03-08T04:00:20;16.60;72.50
51815;DHT22;37874;53.158;6.766;2024-03-08T04:02:47;16.70;72.60
51815;DHT22;37874;53.158;6.766;2024-03-08T04:05:20;16.70;72.50
51815;DHT22;37874;53.158;6.766;2024-03-08T04:07:53;16.70;72.50
51815;DHT22;37874;53.158;6.766;2024-03-08T04:10:20;16.70;72.60
51815;DHT22;37874;53.158;6.766;2024-03-08T04:12:46;16.70;72.50
51815;DHT22;37874;53.158;6.766;2024-03-08T04:15:13;16.60;72.40
51815;DHT22;37874;53.158;6.766;2024-03-08T04:17:41;16.70;72.50
51815;DHT22;37874;53.158;6.766;2024-03-08T04:20:10;16.70;72.50
51815;DHT22;37874;53.158;6.766;2024-03-08T04:22:40;16.70;72.40
51815;DHT22;37874;53.158;6.766;2024-03-08T04:25:08;16.70;72.40
51815;DHT22;37874;53.158;6.766;2024-03-08T04:27:36;16.70;72.30
51815;DHT22;37874;53.158;6.766;2024-03-08T04:30:06;17.10;72.50
51815;DHT22;37874;53.158;6.766;2024-03-08T04:32:35;16.70;72.30
51815;DHT22;37874;53.158;6.766;2024-03-08T04:35:04;16.70;72.20
51815;DHT22;37874;53.158;6.766;2024-03-08T04:37:37;16.70;72.20
51815;DHT22;37874;53.158;6.766;2024-03-08T04:40:04;16.70;72.20
51815;DHT22;37874;53.158;6.766;2024-03-08T04:42:30;16.70;72.10
51815;DHT22;37874;53.158;6.766;2024-03-08T04:45:02;16.70;72.20
51815;DHT22;37874;53.158;6.766;2024-03-08T04:47:28;16.70;72.10
51815;DHT22;37874;53.158;6.766;2024-03-08T04:49:58;16.70;72.20
51815;DHT22;37874;53.158;6.766;2024-03-08T04:52:30;16.70;72.10
51815;DHT22;37874;53.158;6.766;2024-03-08T04:54:57;16.70;72.10
51815;DHT22;37874;53.158;6.766;2024-03-08T04:57:22;16.70;72.10
51815;DHT22;37874;53.158;6.766;2024-03-08T04:59:50;16.90;72.20
51815;DHT22;37874;53.158;6.766;2024-03-08T05:02:15;16.80;72.00
51815;DHT22;37874;53.158;6.766;2024-03-08T05:04:43;16.70;71.90
51815;DHT22;37874;53.158;6.766;2024-03-08T05:07:09;16.80;71.90
51815;DHT22;37874;53.158;6.766;2024-03-08T05:09:41;17.00;72.00
51815;DHT22;37874;53.158;6.766;2024-03-08T05:12:10;16.80;71.90
51815;DHT22;37874;53.158;6.766;2024-03-08T05:14:53;16.80;71.90
51815;DHT22;37874;53.158;6.766;2024-03-08T05:17:21;16.80;71.90
51815;DHT22;37874;53.158;6.766;2024-03-08T05:19:52;16.80;71.80
51815;DHT22;37874;53.158;6.766;2024-03-08T05:22:27;16.90;71.90
51815;DHT22;37874;53.158;6.766;2024-03-08T05:24:53;16.80;71.80
51815;DHT22;37874;53.158;6.766;2024-03-08T05:27:19;16.80;71.70
51815;DHT22;37874;53.158;6.766;2024-03-08T05:29:44;16.80;71.70
51815;DHT22;37874;53.158;6.766;2024-03-08T05:32:12;16.80;71.70
51815;DHT22;37874;53.158;6.766;2024-03-08T05:34:41;16.80;71.60
51815;DHT22;37874;53.158;6.766;2024-03-08T05:37:13;16.80;71.60
51815;DHT22;37874;53.158;6.766;2024-03-08T05:39:41;16.80;71.60
51815;DHT22;37874;53.158;6.766;2024-03-08T05:42:08;16.80;71.60
51815;DHT22;37874;53.158;6.766;2024-03-08T05:44:40;16.80;71.50
51815;DHT22;37874;53.158;6.766;2024-03-08T05:47:06;16.80;71.50
51815;DHT22;37874;53.158;6.766;2024-03-08T05:49:36;16.80;71.50
51815;DHT22;37874;53.158;6.766;2024-03-08T05:52:06;16.90;71.50
51815;DHT22;37874;53.158;6.766;2024-03-08T05:54:38;16.80;71.40
51815;DHT22;37874;53.158;6.766;2024-03-08T05:57:04;16.90;71.40
51815;DHT22;37874;53.158;6.766;2024-03-08T05:59:29;16.90;71.40
51815;DHT22;37874;53.158;6.766;2024-03-08T06:01:56;16.90;71.40
51815;DHT22;37874;53.158;6.766;2024-03-08T06:04:24;16.90;71.30
51815;DHT22;37874;53.158;6.766;2024-03-08T06:06:50;17.20;71.50
51815;DHT22;37874;53.158;6.766;2024-03-08T06:09:31;16.90;71.20
51815;DHT22;37874;53.158;6.766;2024-03-08T06:12:02;17.00;71.30
51815;DHT22;37874;53.158;6.766;2024-03-08T06:14:42;16.90;71.20
51815;DHT22;37874;53.158;6.766;2024-03-08T06:17:19;16.90;71.20
51815;DHT22;37874;53.158;6.766;2024-03-08T06:19:46;16.90;71.20
51815;DHT22;37874;53.158;6.766;2024-03-08T06:22:15;16.90;71.10
51815;DHT22;37874;53.158;6.766;2024-03-08T06:24:40;17.10;71.20
51815;DHT22;37874;53.158;6.766;2024-03-08T06:27:10;16.90;71.20
51815;DHT22;37874;53.158;6.766;2024-03-08T06:29:36;16.90;71.30
51815;DHT22;37874;53.158;6.766;2024-03-08T06:32:02;16.90;71.30
51815;DHT22;37874;53.158;6.766;2024-03-08T06:34:28;16.90;71.30
51815;DHT22;37874;53.158;6.766;2024-03-08T06:36:57;17.10;71.40
51815;DHT22;37874;53.158;6.766;2024-03-08T06:39:29;17.10;71.40
51815;DHT22;37874;53.158;6.766;2024-03-08T06:41:58;17.40;71.60
51815;DHT22;37874;53.158;6.766;2024-03-08T06:44:26;17.00;71.40
51815;DHT22;37874;53.158;6.766;2024-03-08T06:46:53;17.00;71.30
51815;DHT22;37874;53.158;6.766;2024-03-08T06:49:19;17.00;71.30
51815;DHT22;37874;53.158;6.766;2024-03-08T06:51:47;17.00;71.30
51815;DHT22;37874;53.158;6.766;2024-03-08T06:54:17;17.00;71.30
51815;DHT22;37874;53.158;6.766;2024-03-08T06:56:47;17.10;71.30
51815;DHT22;37874;53.158;6.766;2024-03-08T06:59:20;17.00;71.30
51815;DHT22;37874;53.158;6.766;2024-03-08T07:01:47;17.20;71.40
51815;DHT22;37874;53.158;6.766;2024-03-08T07:04:13;17.00;71.20
51815;DHT22;37874;53.158;6.766;2024-03-08T07:06:39;17.00;71.20
51815;DHT22;37874;53.158;6.766;2024-03-08T07:09:07;17.00;71.20
51815;DHT22;37874;53.158;6.766;2024-03-08T07:11:36;17.00;71.20
51815;DHT22;37874;53.158;6.766;2024-03-08T07:14:03;17.00;71.10
51815;DHT22;37874;53.158;6.766;2024-03-08T07:16:32;17.00;71.10
51815;DHT22;37874;53.158;6.766;2024-03-08T07:18:59;16.90;71.10
51815;DHT22;37874;53.158;6.766;2024-03-08T07:21:34;16.90;71.10
51815;DHT22;37874;53.158;6.766;2024-03-08T07:24:00;17.00;71.10
51815;DHT22;37874;53.158;6.766;2024-03-08T07:26:29;17.00;71.00
51815;DHT22;37874;53.158;6.766;2024-03-08T07:29:00;17.10;71.10
51815;DHT22;37874;53.158;6.766;2024-03-08T07:31:27;17.00;71.00
51815;DHT22;37874;53.158;6.766;2024-03-08T07:34:16;17.00;70.90
51815;DHT22;37874;53.158;6.766;2024-03-08T07:36:48;17.00;71.00
51815;DHT22;37874;53.158;6.766;2024-03-08T07:39:19;17.10;70.80
51815;DHT22;37874;53.158;6.766;2024-03-08T07:41:59;17.00;70.80
51815;DHT22;37874;53.158;6.766;2024-03-08T07:44:28;17.00;70.90
51815;DHT22;37874;53.158;6.766;2024-03-08T07:47:01;17.10;70.90
51815;DHT22;37874;53.158;6.766;2024-03-08T07:49:26;17.10;70.80
51815;DHT22;37874;53.158;6.766;2024-03-08T07:51:58;17.10;70.80
51815;DHT22;37874;53.158;6.766;2024-03-08T07:54:33;17.10;70.80
51815;DHT22;37874;53.158;6.766;2024-03-08T07:57:11;17.10;70.70
51815;DHT22;37874;53.158;6.766;2024-03-08T07:59:37;17.10;70.70
51815;DHT22;37874;53.158;6.766;2024-03-08T08:02:06;17.10;70.80
51815;DHT22;37874;53.158;6.766;2024-03-08T08:04:31;17.10;70.70
51815;DHT22;37874;53.158;6.766;2024-03-08T08:07:10;17.10;70.70
51815;DHT22;37874;53.158;6.766;2024-03-08T08:09:36;17.20;70.70
51815;DHT22;37874;53.158;6.766;2024-03-08T08:12:06;17.10;71.20
51815;DHT22;37874;53.158;6.766;2024-03-08T08:14:36;17.20;70.70
51815;DHT22;37874;53.158;6.766;2024-03-08T08:17:05;17.20;70.40
51815;DHT22;37874;53.158;6.766;2024-03-08T08:19:34;17.20;70.30
51815;DHT22;37874;53.158;6.766;2024-03-08T08:22:04;17.20;70.30
51815;DHT22;37874;53.158;6.766;2024-03-08T08:24:29;17.20;70.10
51815;DHT22;37874;53.158;6.766;2024-03-08T08:27:01;17.30;70.10
51815;DHT22;37874;53.158;6.766;2024-03-08T08:29:27;17.30;70.10
51815;DHT22;37874;53.158;6.766;2024-03-08T08:32:05;17.30;70.10
51815;DHT22;37874;53.158;6.766;2024-03-08T08:34:36;17.30;70.10
51815;DHT22;37874;53.158;6.766;2024-03-08T08:37:02;17.30;69.90
51815;DHT22;37874;53.158;6.766;2024-03-08T08:39:29;17.30;69.90
51815;DHT22;37874;53.158;6.766;2024-03-08T08:41:55;17.30;69.80
51815;DHT22;37874;53.158;6.766;2024-03-08T08:44:21;17.30;69.80
51815;DHT22;37874;53.158;6.766;2024-03-08T08:46:49;17.80;70.10
51815;DHT22;37874;53.158;6.766;2024-03-08T08:49:15;17.70;69.90
51815;DHT22;37874;53.158;6.766;2024-03-08T08:51:49;17.40;69.70
51815;DHT22;37874;53.158;6.766;2024-03-08T08:54:16;17.40;69.70
51815;DHT22;37874;53.158;6.766;2024-03-08T08:56:46;17.40;69.80
51815;DHT22;37874;53.158;6.766;2024-03-08T08:59:14;17.40;69.80
51815;DHT22;37874;53.158;6.766;2024-03-08T09:01:42;17.40;69.70
51815;DHT22;37874;53.158;6.766;2024-03-08T09:04:15;17.40;69.80
51815;DHT22;37874;53.158;6.766;2024-03-08T09:06:44;17.40;69.70
51815;DHT22;37874;53.158;6.766;2024-03-08T09:09:17;17.40;69.70
51815;DHT22;37874;53.158;6.766;2024-03-08T09:11:48;17.40;69.80
51815;DHT22;37874;53.158;6.766;2024-03-08T09:14:18;17.50;69.80
51815;DHT22;37874;53.158;6.766;2024-03-08T09:16:48;17.50;69.80
51815;DHT22;37874;53.158;6.766;2024-03-08T09:19:14;17.50;69.80
51815;DHT22;37874;53.158;6.766;2024-03-08T09:21:43;17.50;69.80
51815;DHT22;37874;53.158;6.766;2024-03-08T09:24:09;17.50;69.80
51815;DHT22;37874;53.158;6.766;2024-03-08T09:26:36;17.50;69.80
51815;DHT22;37874;53.158;6.766;2024-03-08T09:29:03;17.40;70.30
51815;DHT22;37874;53.158;6.766;2024-03-08T09:31:29;17.50;69.90
51815;DHT22;37874;53.158;6.766;2024-03-08T09:33:58;17.50;69.90
51815;DHT22;37874;53.158;6.766;2024-03-08T09:36:24;17.40;69.90
51815;DHT22;37874;53.158;6.766;2024-03-08T09:38:52;17.40;69.90
51815;DHT22;37874;53.158;6.766;2024-03-08T09:41:25;17.50;69.90
51815;DHT22;37874;53.158;6.766;2024-03-08T09:43:52;17.50;69.90
51815;DHT22;37874;53.158;6.766;2024-03-08T09:46:19;17.50;69.90
51815;DHT22;37874;53.158;6.766;2024-03-08T09:48:48;17.50;69.90
51815;DHT22;37874;53.158;6.766;2024-03-08T09:51:13;17.50;69.90
51815;DHT22;37874;53.158;6.766;2024-03-08T09:53:41;17.70;70.00
51815;DHT22;37874;53.158;6.766;2024-03-08T09:56:17;17.40;69.80
51815;DHT22;37874;53.158;6.766;2024-03-08T09:58:48;17.40;69.80
51815;DHT22;37874;53.158;6.766;2024-03-08T10:01:40;17.50;69.80
51815;DHT22;37874;53.158;6.766;2024-03-08T10:04:09;17.40;69.80
51815;DHT22;37874;53.158;6.766;2024-03-08T10:06:37;17.40;69.80
51815;DHT22;37874;53.158;6.766;2024-03-08T10:09:03;17.40;69.80
51815;DHT22;37874;53.158;6.766;2024-03-08T10:11:31;17.40;69.80
51815;DHT22;37874;53.158;6.766;2024-03-08T10:13:57;17.40;69.80
51815;DHT22;37874;53.158;6.766;2024-03-08T10:16:23;17.60;70.00
51815;DHT22;37874;53.158;6.766;2024-03-08T10:18:52;17.40;69.80
51815;DHT22;37874;53.158;6.766;2024-03-08T10:21:19;17.40;69.90
51815;DHT22;37874;53.158;6.766;2024-03-08T10:23:46;17.40;69.70
51815;DHT22;37874;53.158;6.766;2024-03-08T10:26:21;17.50;69.80
51815;DHT22;37874;53.158;6.766;2024-03-08T10:28:52;17.40;69.60
51815;DHT22;37874;53.158;6.766;2024-03-08T10:31:19;17.40;69.60
51815;DHT22;37874;53.158;6.766;2024-03-08T10:33:52;17.40;69.60
51815;DHT22;37874;53.158;6.766;2024-03-08T10:36:19;17.40;69.60
51815;DHT22;37874;53.158;6.766;2024-03-08T10:38:46;17.40;69.60
51815;DHT22;37874;53.158;6.766;2024-03-08T10:41:24;17.40;69.60
51815;DHT22;37874;53.158;6.766;2024-03-08T10:49:31;17.40;69.50
51815;DHT22;37874;53.158;6.766;2024-03-08T10:52:05;17.40;69.50
51815;DHT22;37874;53.158;6.766;2024-03-08T10:54:37;17.50;69.60
51815;DHT22;37874;53.158;6.766;2024-03-08T10:57:07;17.40;69.50
51815;DHT22;37874;53.158;6.766;2024-03-08T10:59:34;17.50;69.60
51815;DHT22;37874;53.158;6.766;2024-03-08T11:02:11;17.50;69.60
51815;DHT22;37874;53.158;6.766;2024-03-08T11:04:39;17.40;69.50
51815;DHT22;37874;53.158;6.766;2024-03-08T11:07:12;17.50;69.50
51815;DHT22;37874;53.158;6.766;2024-03-08T11:09:48;17.50;69.50
51815;DHT22;37874;53.158;6.766;2024-03-08T11:12:28;17.80;69.20
51815;DHT22;37874;53.158;6.766;2024-03-08T11:15:14;17.90;68.70
51815;DHT22;37874;53.158;6.766;2024-03-08T11:17:48;18.10;68.50
51815;DHT22;37874;53.158;6.766;2024-03-08T11:20:16;18.30;67.50
51815;DHT22;37874;53.158;6.766;2024-03-08T11:22:54;18.50;67.10
51815;DHT22;37874;53.158;6.766;2024-03-08T11:25:40;18.70;66.40
51815;DHT22;37874;53.158;6.766;2024-03-08T11:33:46;19.20;64.80
51815;DHT22;37874;53.158;6.766;2024-03-08T11:38:48;19.50;63.90
51815;DHT22;37874;53.158;6.766;2024-03-08T11:41:21;19.60;63.70
51815;DHT22;37874;53.158;6.766;2024-03-08T11:44:03;19.70;63.40
51815;DHT22;37874;53.158;6.766;2024-03-08T11:46:36;19.80;63.20
51815;DHT22;37874;53.158;6.766;2024-03-08T11:49:04;19.80;62.70
51815;DHT22;37874;53.158;6.766;2024-03-08T11:51:35;19.90;62.60
51815;DHT22;37874;53.158;6.766;2024-03-08T11:54:02;19.90;62.40
51815;DHT22;37874;53.158;6.766;2024-03-08T11:56:29;19.90;62.30
51815;DHT22;37874;53.158;6.766;2024-03-08T11:58:58;19.90;62.60
51815;DHT22;37874;53.158;6.766;2024-03-08T12:01:32;19.90;61.50
51815;DHT22;37874;53.158;6.766;2024-03-08T12:03:57;19.90;61.50
51815;DHT22;37874;53.158;6.766;2024-03-08T12:06:37;19.80;61.70
51815;DHT22;37874;53.158;6.766;2024-03-08T12:09:16;19.80;61.60
51815;DHT22;37874;53.158;6.766;2024-03-08T12:11:42;19.80;61.60
51815;DHT22;37874;53.158;6.766;2024-03-08T12:14:15;19.80;62.10
51815;DHT22;37874;53.158;6.766;2024-03-08T12:16:43;19.80;62.10
51815;DHT22;37874;53.158;6.766;2024-03-08T12:19:10;19.80;62.10
51815;DHT22;37874;53.158;6.766;2024-03-08T12:21:42;19.80;62.20
51815;DHT22;37874;53.158;6.766;2024-03-08T12:24:16;19.80;62.20
51815;DHT22;37874;53.158;6.766;2024-03-08T12:26:46;19.80;62.30
51815;DHT22;37874;53.158;6.766;2024-03-08T12:29:38;19.80;62.30
51815;DHT22;37874;53.158;6.766;2024-03-08T12:32:05;19.80;62.40
51815;DHT22;37874;53.158;6.766;2024-03-08T12:34:31;19.80;62.40
51815;DHT22;37874;53.158;6.766;2024-03-08T12:37:03;19.80;62.60
51815;DHT22;37874;53.158;6.766;2024-03-08T12:39:34;19.70;62.40
51815;DHT22;37874;53.158;6.766;2024-03-08T12:42:01;19.70;62.40
51815;DHT22;37874;53.158;6.766;2024-03-08T12:44:30;19.70;62.40
51815;DHT22;37874;53.158;6.766;2024-03-08T12:46:58;20.10;62.80
51815;DHT22;37874;53.158;6.766;2024-03-08T12:49:26;19.70;62.30
51815;DHT22;37874;53.158;6.766;2024-03-08T12:51:58;19.70;62.30
51815;DHT22;37874;53.158;6.766;2024-03-08T12:54:23;19.70;62.50
51815;DHT22;37874;53.158;6.766;2024-03-08T12:57:00;19.70;62.50
51815;DHT22;37874;53.158;6.766;2024-03-08T12:59:28;19.70;62.50
51815;DHT22;37874;53.158;6.766;2024-03-08T13:01:56;19.60;62.40
51815;DHT22;37874;53.158;6.766;2024-03-08T13:04:31;19.70;62.40
51815;DHT22;37874;53.158;6.766;2024-03-08T13:06:57;19.70;62.40
51815;DHT22;37874;53.158;6.766;2024-03-08T13:09:25;19.70;62.50
51815;DHT22;37874;53.158;6.766;2024-03-08T13:11:56;19.70;62.40
51815;DHT22;37874;53.158;6.766;2024-03-08T13:14:30;19.80;62.30
51815;DHT22;37874;53.158;6.766;2024-03-08T13:17:02;19.80;62.20
51815;DHT22;37874;53.158;6.766;2024-03-08T13:19:31;19.80;62.00
51815;DHT22;37874;53.158;6.766;2024-03-08T13:21:59;19.80;62.00
51815;DHT22;37874;53.158;6.766;2024-03-08T13:24:25;19.90;61.90
51815;DHT22;37874;53.158;6.766;2024-03-08T13:27:07;19.90;61.80
51815;DHT22;37874;53.158;6.766;2024-03-08T13:29:52;19.90;61.50
51815;DHT22;37874;53.158;6.766;2024-03-08T13:32:24;20.00;62.10
51815;DHT22;37874;53.158;6.766;2024-03-08T13:34:52;20.00;61.20
51815;DHT22;37874;53.158;6.766;2024-03-08T13:37:19;20.00;61.60
51815;DHT22;37874;53.158;6.766;2024-03-08T13:39:53;20.00;61.30
51815;DHT22;37874;53.158;6.766;2024-03-08T13:42:24;20.00;61.40
51815;DHT22;37874;53.158;6.766;2024-03-08T13:44:54;20.10;61.20
51815;DHT22;37874;53.158;6.766;2024-03-08T13:47:24;20.10;60.90
51815;DHT22;37874;53.158;6.766;2024-03-08T13:49:50;20.10;60.80
51815;DHT22;37874;53.158;6.766;2024-03-08T13:52:17;20.10;60.60
51815;DHT22;37874;53.158;6.766;2024-03-08T13:54:43;20.20;60.50
51815;DHT22;37874;53.158;6.766;2024-03-08T13:57:09;20.20;60.30
51815;DHT22;37874;53.158;6.766;2024-03-08T13:59:40;20.20;59.90
51815;DHT22;37874;53.158;6.766;2024-03-08T14:02:06;20.30;59.50
51815;DHT22;37874;53.158;6.766;2024-03-08T14:04:37;20.30;59.20
51815;DHT22;37874;53.158;6.766;2024-03-08T14:07:04;20.30;59.00
51815;DHT22;37874;53.158;6.766;2024-03-08T14:09:37;20.40;58.90
51815;DHT22;37874;53.158;6.766;2024-03-08T14:12:05;20.40;58.60
51815;DHT22;37874;53.158;6.766;2024-03-08T14:14:33;20.40;58.70
51815;DHT22;37874;53.158;6.766;2024-03-08T14:17:03;20.50;58.30
51815;DHT22;37874;53.158;6.766;2024-03-08T14:19:30;20.60;58.20
51815;DHT22;37874;53.158;6.766;2024-03-08T14:22:02;20.60;57.90
51815;DHT22;37874;53.158;6.766;2024-03-08T14:24:37;20.70;57.80
51815;DHT22;37874;53.158;6.766;2024-03-08T14:27:09;20.70;57.50
51815;DHT22;37874;53.158;6.766;2024-03-08T14:29:35;20.80;57.40
51815;DHT22;37874;53.158;6.766;2024-03-08T14:32:07;20.90;57.20
51815;DHT22;37874;53.158;6.766;2024-03-08T14:34:37;21.00;56.60
51815;DHT22;37874;53.158;6.766;2024-03-08T14:37:02;21.00;56.50
51815;DHT22;37874;53.158;6.766;2024-03-08T14:39:40;21.10;56.50
51815;DHT22;37874;53.158;6.766;2024-03-08T14:42:06;21.10;56.60
51815;DHT22;37874;53.158;6.766;2024-03-08T14:44:34;21.20;55.90
51815;DHT22;37874;53.158;6.766;2024-03-08T14:47:01;21.30;56.20
51815;DHT22;37874;53.158;6.766;2024-03-08T14:49:31;21.30;56.00
51815;DHT22;37874;53.158;6.766;2024-03-08T14:51:58;21.40;55.80
51815;DHT22;37874;53.158;6.766;2024-03-08T14:54:24;21.50;55.60
51815;DHT22;37874;53.158;6.766;2024-03-08T14:56:52;21.50;55.60
51815;DHT22;37874;53.158;6.766;2024-03-08T14:59:20;21.50;55.30
51815;DHT22;37874;53.158;6.766;2024-03-08T15:01:46;21.60;55.40
51815;DHT22;37874;53.158;6.766;2024-03-08T15:04:13;21.70;55.20
51815;DHT22;37874;53.158;6.766;2024-03-08T15:06:39;21.70;55.30
51815;DHT22;37874;53.158;6.766;2024-03-08T15:09:05;21.80;55.10
51815;DHT22;37874;53.158;6.766;2024-03-08T15:11:38;21.80;55.00
51815;DHT22;37874;53.158;6.766;2024-03-08T15:14:05;21.90;55.00
51815;DHT22;37874;53.158;6.766;2024-03-08T15:16:40;22.00;55.10
51815;DHT22;37874;53.158;6.766;2024-03-08T15:19:14;22.00;54.90
51815;DHT22;37874;53.158;6.766;2024-03-08T15:21:51;22.10;54.90
51815;DHT22;37874;53.158;6.766;2024-03-08T15:24:22;22.10;54.90
51815;DHT22;37874;53.158;6.766;2024-03-08T15:30:59;22.20;54.20
51815;DHT22;37874;53.158;6.766;2024-03-08T15:33:30;22.30;54.50
51815;DHT22;37874;53.158;6.766;2024-03-08T15:35:58;22.40;54.30
51815;DHT22;37874;53.158;6.766;2024-03-08T15:38:30;22.40;54.50
51815;DHT22;37874;53.158;6.766;2024-03-08T15:41:10;22.40;54.50
51815;DHT22;37874;53.158;6.766;2024-03-08T15:43:40;22.40;54.50
51815;DHT22;37874;53.158;6.766;2024-03-08T15:46:10;22.40;54.50
51815;DHT22;37874;53.158;6.766;2024-03-08T15:48:45;22.50;54.40
51815;DHT22;37874;53.158;6.766;2024-03-08T15:51:13;22.50;54.30
51815;DHT22;37874;53.158;6.766;2024-03-08T15:53:41;22.50;54.10
51815;DHT22;37874;53.158;6.766;2024-03-08T15:56:14;22.50;54.70
51815;DHT22;37874;53.158;6.766;2024-03-08T15:58:44;22.50;54.20
51815;DHT22;37874;53.158;6.766;2024-03-08T16:01:12;22.50;54.10
51815;DHT22;37874;53.158;6.766;2024-03-08T16:03:41;22.50;54.50